createdAt,value
2022-10-19T00:01:25.032Z,13.90
2022-10-19T00:03:56.902Z,13.80
2022-10-19T00:06:34.865Z,13.80
2022-10-19T00:09:08.240Z,13.70
2022-10-19T00:11:37.193Z,13.70
2022-10-19T00:14:07.453Z,13.70
2022-10-19T00:16:37.111Z,13.70
2022-10-19T00:19:09.278Z,13.70
2022-10-19T00:21:40.880Z,13.70
2022-10-19T00:24:08.573Z,13.70
2022-10-19T00:26:38.340Z,13.60
2022-10-19T00:29:07.149Z,13.60
2022-10-19T00:31:36.423Z,13.60
2022-10-19T00:34:05.528Z,13.60
2022-10-19T00:36:39.486Z,13.60
2022-10-19T00:39:09.894Z,13.70
2022-10-19T00:41:37.307Z,13.70
2022-10-19T00:44:15.856Z,13.80
2022-10-19T00:46:45.211Z,13.80
2022-10-19T00:49:23.846Z,13.80
2022-10-19T00:51:59.684Z,13.80
2022-10-19T00:54:28.879Z,13.80
2022-10-19T00:56:57.827Z,13.90
2022-10-19T00:59:26.681Z,13.90
2022-10-19T01:01:54.221Z,13.90
2022-10-19T01:04:23.759Z,13.90
2022-10-19T01:06:54.248Z,13.90
2022-10-19T01:09:25.844Z,14.00
2022-10-19T01:12:07.089Z,14.00
2022-10-19T01:14:42.586Z,14.00
2022-10-19T01:17:37.035Z,14.00
2022-10-19T01:20:18.112Z,14.00
2022-10-19T01:22:53.820Z,14.00
2022-10-19T01:25:42.028Z,14.00
2022-10-19T01:28:32.865Z,14.00
2022-10-19T01:31:07.372Z,13.90
2022-10-19T01:36:39.264Z,13.80
2022-10-19T01:39:09.583Z,13.80
2022-10-19T01:41:48.566Z,13.80
2022-10-19T01:44:25.132Z,13.80
2022-10-19T01:47:04.283Z,13.80
2022-10-19T01:49:45.886Z,13.90
2022-10-19T01:52:15.884Z,13.90
2022-10-19T01:54:52.639Z,13.90
2022-10-19T01:57:41.891Z,13.90
2022-10-19T02:00:12.829Z,13.90
2022-10-19T02:02:46.107Z,13.90
2022-10-19T02:05:16.412Z,13.90
2022-10-19T02:07:49.536Z,13.90
2022-10-19T02:10:19.199Z,14.00
2022-10-19T02:12:51.042Z,14.00
2022-10-19T02:15:23.675Z,14.00
2022-10-19T02:17:56.793Z,14.00
2022-10-19T02:20:27.525Z,14.00
2022-10-19T02:22:54.788Z,14.00
2022-10-19T02:25:22.359Z,14.00
2022-10-19T02:27:51.726Z,14.00
2022-10-19T02:30:21.686Z,14.00
2022-10-19T02:32:49.658Z,14.00
2022-10-19T02:35:16.671Z,14.00
2022-10-19T02:37:48.376Z,14.00
2022-10-19T02:40:17.880Z,14.00
2022-10-19T02:43:01.667Z,14.00
2022-10-19T02:45:36.608Z,14.00
2022-10-19T02:48:12.689Z,14.00
2022-10-19T02:50:49.250Z,14.00
2022-10-19T02:53:16.663Z,13.90
2022-10-19T02:55:50.003Z,13.90
2022-10-19T02:58:23.831Z,13.80
2022-10-19T03:00:52.799Z,13.80
2022-10-19T03:03:19.766Z,13.90
2022-10-19T03:05:46.429Z,13.80
2022-10-19T03:08:15.379Z,13.80
2022-10-19T03:10:44.263Z,13.90
2022-10-19T03:13:13.454Z,13.80
2022-10-19T03:15:40.094Z,13.80
2022-10-19T03:18:11.696Z,13.80
2022-10-19T03:20:43.008Z,13.70
2022-10-19T03:23:14.488Z,13.70
2022-10-19T03:25:45.804Z,13.70
2022-10-19T03:28:12.464Z,13.70
2022-10-19T03:30:39.106Z,13.70
2022-10-19T03:33:10.919Z,13.80
2022-10-19T03:35:37.778Z,13.70
2022-10-19T03:38:06.779Z,13.80
2022-10-19T03:40:35.844Z,13.80
2022-10-19T03:43:04.770Z,13.80
2022-10-19T03:45:31.498Z,13.80
2022-10-19T03:48:02.721Z,13.80
2022-10-19T03:50:31.617Z,13.80
2022-10-19T03:52:58.354Z,13.70
2022-10-19T03:55:25.056Z,13.70
2022-10-19T03:57:51.860Z,13.60
2022-10-19T04:00:21.143Z,13.60
2022-10-19T04:02:52.637Z,13.60
2022-10-19T04:05:19.338Z,13.50
2022-10-19T04:07:48.533Z,13.50
2022-10-19T04:10:15.266Z,13.40
2022-10-19T04:12:44.550Z,13.40
2022-10-19T04:15:15.965Z,13.40
2022-10-19T04:17:48.690Z,13.40
2022-10-19T04:20:17.710Z,13.40
2022-10-19T04:22:46.856Z,13.40
2022-10-19T04:25:13.692Z,13.30
2022-10-19T04:27:42.736Z,13.30
2022-10-19T04:30:09.792Z,13.30
2022-10-19T04:32:36.532Z,13.20
2022-10-19T04:35:05.669Z,13.20
2022-10-19T04:37:35.091Z,13.20
2022-10-19T04:40:05.864Z,13.20
2022-10-19T04:42:32.568Z,13.20
2022-10-19T04:44:59.211Z,13.20
2022-10-19T04:47:28.261Z,13.20
2022-10-19T04:49:55.004Z,13.30
2022-10-19T04:52:23.911Z,13.40
2022-10-19T04:54:52.761Z,13.50
2022-10-19T04:57:19.419Z,13.50
2022-10-19T04:59:47.177Z,13.50
2022-10-19T05:02:16.256Z,13.50
2022-10-19T05:04:45.143Z,13.60
2022-10-19T05:07:14.272Z,13.60
2022-10-19T05:09:43.103Z,13.60
2022-10-19T05:12:12.251Z,13.60
2022-10-19T05:14:41.915Z,13.60
2022-10-19T05:17:12.710Z,13.60
2022-10-19T05:19:47.219Z,13.60
2022-10-19T05:22:13.890Z,13.60
2022-10-19T05:24:45.223Z,13.60
2022-10-19T05:27:11.893Z,13.60
2022-10-19T05:29:38.608Z,13.70
2022-10-19T05:32:05.555Z,13.60
2022-10-19T05:34:32.435Z,13.70
2022-10-19T05:36:59.159Z,13.70
2022-10-19T05:39:30.219Z,13.70
2022-10-19T05:41:56.916Z,13.70
2022-10-19T05:44:27.990Z,13.80
2022-10-19T05:46:54.767Z,13.70
2022-10-19T05:49:23.793Z,13.70
2022-10-19T05:51:52.653Z,13.70
2022-10-19T05:54:26.440Z,13.70
2022-10-19T05:56:59.993Z,13.80
2022-10-19T05:59:26.793Z,13.80
2022-10-19T06:01:55.734Z,13.80
2022-10-19T06:04:24.687Z,13.80
2022-10-19T06:06:53.505Z,13.80
2022-10-19T06:09:22.604Z,13.80
2022-10-19T06:11:51.409Z,13.80
2022-10-19T06:14:18.172Z,13.90
2022-10-19T06:16:46.018Z,13.90
2022-10-19T06:19:15.550Z,13.90
2022-10-19T06:21:45.848Z,13.90
2022-10-19T06:24:15.059Z,14.00
2022-10-19T06:26:41.884Z,14.00
2022-10-19T06:29:11.655Z,14.00
2022-10-19T06:31:38.497Z,14.00
2022-10-19T06:34:05.500Z,14.00
2022-10-19T06:36:35.294Z,14.10
2022-10-19T06:39:02.171Z,14.10
2022-10-19T06:41:30.227Z,14.10
2022-10-19T06:43:57.260Z,14.10
2022-10-19T06:46:25.883Z,14.20
2022-10-19T06:48:56.884Z,14.20
2022-10-19T06:51:26.665Z,14.20
2022-10-19T06:53:57.145Z,14.30
2022-10-19T06:56:27.695Z,14.30
2022-10-19T06:58:57.893Z,14.40
2022-10-19T07:01:25.256Z,14.40
2022-10-19T07:03:55.298Z,14.50
2022-10-19T07:06:24.379Z,14.50
2022-10-19T07:08:53.052Z,14.60
2022-10-19T07:11:22.386Z,14.70
2022-10-19T07:13:55.042Z,14.80
2022-10-19T07:16:24.457Z,14.80
2022-10-19T07:18:52.999Z,14.90
2022-10-19T07:21:21.734Z,15.00
2022-10-19T07:23:51.091Z,15.00
2022-10-19T07:26:23.223Z,15.10
2022-10-19T07:28:52.590Z,15.10
2022-10-19T07:31:24.302Z,15.20
2022-10-19T07:34:00.749Z,15.20
2022-10-19T07:36:34.293Z,15.30
2022-10-19T07:39:02.288Z,15.30
2022-10-19T07:41:31.835Z,15.40
2022-10-19T07:43:58.621Z,15.40
2022-10-19T07:46:33.228Z,15.50
2022-10-19T07:49:02.632Z,15.60
2022-10-19T07:51:31.795Z,15.70
2022-10-19T07:54:01.166Z,15.80
2022-10-19T07:56:28.410Z,15.90
2022-10-19T07:58:57.017Z,15.90
2022-10-19T08:01:26.927Z,15.90
2022-10-19T08:06:44.288Z,16.00
2022-10-19T08:09:33.383Z,16.10
2022-10-19T08:12:03.764Z,16.30
2022-10-19T08:14:30.735Z,16.40
2022-10-19T08:16:57.600Z,16.40
2022-10-19T08:19:24.366Z,16.50
2022-10-19T08:21:55.936Z,16.60
2022-10-19T08:24:25.132Z,16.60
2022-10-19T08:26:55.002Z,16.70
2022-10-19T08:29:25.595Z,16.80
2022-10-19T08:31:59.092Z,16.80
2022-10-19T08:34:28.263Z,16.90
2022-10-19T08:36:54.961Z,17.00
2022-10-19T08:39:21.724Z,17.10
2022-10-19T08:42:05.063Z,17.20
2022-10-19T08:44:45.434Z,17.30
2022-10-19T08:47:49.700Z,17.30
2022-10-19T08:50:29.338Z,17.40
2022-10-19T08:53:07.773Z,17.30
2022-10-19T08:55:59.709Z,17.30
2022-10-19T08:59:11.447Z,17.40
2022-10-19T09:01:47.686Z,17.50
2022-10-19T09:04:32.810Z,17.50
2022-10-19T09:07:20.624Z,17.70
2022-10-19T09:09:53.749Z,17.80
2022-10-19T09:12:34.004Z,17.80
2022-10-19T09:15:16.232Z,18.00
2022-10-19T09:17:43.046Z,18.10
2022-10-19T09:20:16.750Z,18.20
2022-10-19T09:22:44.423Z,18.20
2022-10-19T09:25:29.118Z,18.20
2022-10-19T09:28:31.553Z,18.10
2022-10-19T09:31:03.776Z,18.20
2022-10-19T09:33:39.280Z,18.20
2022-10-19T09:36:18.226Z,18.30
2022-10-19T09:38:56.801Z,18.30
2022-10-19T09:41:27.248Z,18.30
2022-10-19T09:43:55.479Z,18.20
2022-10-19T09:46:30.882Z,18.30
2022-10-19T09:49:01.410Z,18.30
2022-10-19T09:51:51.671Z,18.40
2022-10-19T09:54:44.973Z,18.50
2022-10-19T09:57:21.631Z,18.60
2022-10-19T09:59:52.595Z,18.60
2022-10-19T10:02:29.035Z,18.50
2022-10-19T10:05:15.972Z,18.50
2022-10-19T10:07:45.093Z,18.60
2022-10-19T10:10:20.008Z,18.70
2022-10-19T10:12:49.365Z,18.80
2022-10-19T10:15:26.873Z,18.90
2022-10-19T10:17:55.392Z,19.10
2022-10-19T10:20:32.363Z,19.20
2022-10-19T10:23:02.895Z,19.20
2022-10-19T10:25:36.781Z,19.20
2022-10-19T10:28:22.309Z,19.10
2022-10-19T10:31:06.872Z,19.10
2022-10-19T10:33:44.715Z,19.00
2022-10-19T10:36:14.946Z,19.10
2022-10-19T10:38:47.434Z,19.20
2022-10-19T10:41:23.084Z,19.20
2022-10-19T10:44:04.933Z,19.10
2022-10-19T10:46:36.898Z,19.10
2022-10-19T10:49:17.513Z,19.20
2022-10-19T10:51:49.224Z,19.30
2022-10-19T10:54:33.300Z,19.30
2022-10-19T10:57:18.564Z,19.20
2022-10-19T11:00:12.252Z,19.00
2022-10-19T11:02:51.237Z,18.90
2022-10-19T11:05:39.131Z,19.00
2022-10-19T11:08:22.565Z,19.00
2022-10-19T11:10:54.673Z,19.00
2022-10-19T11:13:28.950Z,19.00
2022-10-19T11:15:58.857Z,18.80
2022-10-19T11:18:53.130Z,18.60
2022-10-19T11:22:01.941Z,18.40
2022-10-19T11:24:50.887Z,18.30
2022-10-19T11:27:39.606Z,18.20
2022-10-19T11:30:16.693Z,18.20
2022-10-19T11:33:22.877Z,18.20
2022-10-19T11:36:01.968Z,18.10
2022-10-19T11:38:50.264Z,18.20
2022-10-19T11:41:29.429Z,18.10
2022-10-19T11:44:18.097Z,18.20
2022-10-19T11:47:05.853Z,18.30
2022-10-19T11:49:46.912Z,18.50
2022-10-19T11:52:22.606Z,18.80
2022-10-19T11:55:30.948Z,19.00
2022-10-19T11:58:13.187Z,19.30
2022-10-19T12:00:57.535Z,19.60
2022-10-19T12:03:48.114Z,19.80
2022-10-19T12:06:26.064Z,20.00
2022-10-19T12:08:57.951Z,20.10
2022-10-19T12:11:27.561Z,20.00
2022-10-19T12:14:00.780Z,20.00
2022-10-19T12:16:37.992Z,20.10
2022-10-19T12:19:12.053Z,20.30
2022-10-19T12:21:40.778Z,20.40
2022-10-19T12:24:14.726Z,20.50
2022-10-19T12:26:42.352Z,20.70
2022-10-19T12:29:27.959Z,20.90
2022-10-19T12:31:56.207Z,20.90
2022-10-19T12:34:31.359Z,21.00
2022-10-19T12:37:10.271Z,21.10
2022-10-19T12:40:10.639Z,21.10
2022-10-19T12:42:51.587Z,20.90
2022-10-19T12:46:05.519Z,20.90
2022-10-19T12:48:39.349Z,20.70
2022-10-19T12:51:09.085Z,20.60
2022-10-19T12:53:44.522Z,20.50
2022-10-19T12:56:13.581Z,20.40
2022-10-19T12:58:53.479Z,20.20
2022-10-19T13:01:36.758Z,20.10
2022-10-19T13:04:19.292Z,20.10
2022-10-19T13:06:49.335Z,20.00
2022-10-19T13:09:35.752Z,20.00
2022-10-19T13:12:21.603Z,19.90
2022-10-19T13:14:53.473Z,19.80
2022-10-19T13:17:37.836Z,19.80
2022-10-19T13:20:13.962Z,19.80
2022-10-19T13:22:41.771Z,19.70
2022-10-19T13:25:37.059Z,19.70
2022-10-19T13:28:06.803Z,19.60
2022-10-19T13:30:36.522Z,19.50
2022-10-19T13:33:34.991Z,19.40
2022-10-19T13:36:02.477Z,19.40
2022-10-19T13:38:29.432Z,19.40
2022-10-19T13:41:06.778Z,19.40
2022-10-19T13:43:54.183Z,19.50
2022-10-19T13:46:32.342Z,19.40
2022-10-19T13:49:07.382Z,19.30
2022-10-19T13:51:44.657Z,19.20
2022-10-19T13:54:40.085Z,19.10
2022-10-19T13:57:27.945Z,19.10
2022-10-19T14:00:18.875Z,19.10
2022-10-19T14:02:48.423Z,19.10
2022-10-19T14:05:43.660Z,19.20
2022-10-19T14:08:28.383Z,19.10
2022-10-19T14:11:11.902Z,19.20
2022-10-19T14:13:40.888Z,19.20
2022-10-19T14:16:07.712Z,19.20
2022-10-19T14:18:37.643Z,19.20
2022-10-19T14:21:06.769Z,19.10
2022-10-19T14:23:40.305Z,19.10
2022-10-19T14:26:23.272Z,19.10
2022-10-19T14:28:57.269Z,19.10
2022-10-19T14:31:30.721Z,19.10
2022-10-19T14:34:02.153Z,18.90
2022-10-19T14:36:45.596Z,18.90
2022-10-19T14:39:27.331Z,18.80
2022-10-19T14:41:55.675Z,18.70
2022-10-19T14:44:45.524Z,18.70
2022-10-19T14:47:27.114Z,18.50
2022-10-19T14:49:53.861Z,18.50
2022-10-19T14:55:02.501Z,18.40
2022-10-19T14:57:35.059Z,18.40
2022-10-19T15:00:08.705Z,18.30
2022-10-19T15:02:58.664Z,18.30
2022-10-19T15:05:29.350Z,18.30
2022-10-19T15:08:06.435Z,18.30
2022-10-19T15:10:43.997Z,18.40
2022-10-19T15:13:23.809Z,18.50
2022-10-19T15:15:55.938Z,18.50
2022-10-19T15:18:51.047Z,18.50
2022-10-19T15:21:20.343Z,18.60
2022-10-19T15:23:49.533Z,18.70
2022-10-19T15:26:20.556Z,18.70
2022-10-19T15:28:48.886Z,18.70
2022-10-19T15:31:21.369Z,18.60
2022-10-19T15:33:53.979Z,18.60
2022-10-19T15:36:25.351Z,18.40
2022-10-19T15:39:06.274Z,18.20
2022-10-19T15:41:47.157Z,18.10
2022-10-19T15:44:36.353Z,17.90
2022-10-19T15:47:15.349Z,17.70
2022-10-19T15:49:41.999Z,17.60
2022-10-19T15:52:16.592Z,17.60
2022-10-19T15:54:43.720Z,17.60
2022-10-19T15:57:28.321Z,17.50
2022-10-19T15:59:56.734Z,17.50
2022-10-19T16:02:25.135Z,17.40
2022-10-19T16:04:57.772Z,17.30
2022-10-19T16:07:33.136Z,17.30
2022-10-19T16:10:02.271Z,17.20
2022-10-19T16:12:31.122Z,17.00
2022-10-19T16:14:57.886Z,16.90
2022-10-19T16:17:27.016Z,16.80
2022-10-19T16:19:58.386Z,16.70
2022-10-19T16:22:25.242Z,16.60
2022-10-19T16:24:51.899Z,16.40
2022-10-19T16:27:18.653Z,16.20
2022-10-19T16:29:45.346Z,16.10
2022-10-19T16:32:12.054Z,16.10
2022-10-19T16:34:41.455Z,15.90
2022-10-19T16:37:10.603Z,15.80
2022-10-19T16:39:37.297Z,15.80
2022-10-19T16:42:04.148Z,15.70
2022-10-19T16:44:30.827Z,15.50
2022-10-19T16:47:02.477Z,15.40
2022-10-19T16:49:31.363Z,15.30
2022-10-19T16:51:58.450Z,15.20
2022-10-19T16:54:32.803Z,15.10
2022-10-19T16:56:59.547Z,15.00
2022-10-19T16:59:28.611Z,15.00
2022-10-19T17:01:55.401Z,14.90
2022-10-19T17:04:22.193Z,14.80
2022-10-19T17:06:51.531Z,14.70
2022-10-19T17:12:10.730Z,14.60
2022-10-19T17:14:44.110Z,14.60
2022-10-19T17:17:13.699Z,14.50
2022-10-19T17:19:40.558Z,14.40
2022-10-19T17:22:07.333Z,14.30
2022-10-19T17:24:34.112Z,14.20
2022-10-19T17:27:03.172Z,14.20
2022-10-19T17:29:30.282Z,14.20
2022-10-19T17:31:57.601Z,14.10
2022-10-19T17:34:24.370Z,14.10
2022-10-19T17:36:53.376Z,14.00
2022-10-19T17:39:25.684Z,14.00
2022-10-19T17:42:03.275Z,13.90
2022-10-19T17:44:31.331Z,13.90
2022-10-19T17:46:59.085Z,13.80
2022-10-19T17:49:25.828Z,13.80
2022-10-19T17:51:53.394Z,13.70
2022-10-19T17:54:20.545Z,13.60
2022-10-19T17:56:49.794Z,13.60
2022-10-19T17:59:16.493Z,13.60
2022-10-19T18:01:43.310Z,13.60
2022-10-19T18:04:10.258Z,13.50
2022-10-19T18:06:37.771Z,13.50
2022-10-19T18:09:07.381Z,13.40
2022-10-19T18:11:39.673Z,13.40
2022-10-19T18:14:08.318Z,13.30
2022-10-19T18:16:40.264Z,13.30
2022-10-19T18:19:08.216Z,13.30
2022-10-19T18:21:39.896Z,13.20
2022-10-19T18:24:10.129Z,13.10
2022-10-19T18:26:40.226Z,13.10
2022-10-19T18:29:13.680Z,13.10
2022-10-19T18:31:42.975Z,13.00
2022-10-19T18:34:14.292Z,13.00
2022-10-19T18:36:43.851Z,12.90
2022-10-19T18:39:16.946Z,12.90
2022-10-19T18:41:43.948Z,12.90
2022-10-19T18:44:13.972Z,12.90
2022-10-19T18:46:41.218Z,12.80
2022-10-19T18:49:08.497Z,12.80
2022-10-19T18:51:38.179Z,12.70
2022-10-19T18:54:07.815Z,12.70
2022-10-19T18:56:36.890Z,12.60
2022-10-19T18:59:06.651Z,12.60
2022-10-19T19:01:33.624Z,12.60
2022-10-19T19:04:06.816Z,12.50
2022-10-19T19:06:36.882Z,12.50
2022-10-19T19:09:08.709Z,12.50
2022-10-19T19:11:38.202Z,12.50
2022-10-19T19:14:11.928Z,12.40
2022-10-19T19:16:42.282Z,12.40
2022-10-19T19:19:15.864Z,12.30
2022-10-19T19:21:44.427Z,12.30
2022-10-19T19:24:19.051Z,12.30
2022-10-19T19:26:53.455Z,12.20
2022-10-19T19:29:21.617Z,12.20
2022-10-19T19:31:48.709Z,12.20
2022-10-19T19:34:15.533Z,12.10
2022-10-19T19:36:47.382Z,12.10
2022-10-19T19:39:18.753Z,12.00
2022-10-19T19:41:46.056Z,12.00
2022-10-19T19:44:15.768Z,12.00
2022-10-19T19:46:47.249Z,12.00
2022-10-19T19:49:16.874Z,12.00
2022-10-19T19:51:45.914Z,12.00
2022-10-19T19:54:13.191Z,12.00
2022-10-19T19:56:42.058Z,12.00
2022-10-19T19:59:12.584Z,11.90
2022-10-19T20:01:39.750Z,11.90
2022-10-19T20:04:08.849Z,11.80
2022-10-19T20:06:37.453Z,11.70
2022-10-19T20:09:05.971Z,11.70
2022-10-19T20:11:37.252Z,11.60
2022-10-19T20:14:08.061Z,11.70
2022-10-19T20:16:37.090Z,11.70
2022-10-19T20:19:14.249Z,11.70
2022-10-19T20:21:45.724Z,11.70
2022-10-19T20:24:12.486Z,11.70
2022-10-19T20:26:39.506Z,11.70
2022-10-19T20:29:06.483Z,11.60
2022-10-19T20:31:39.102Z,11.50
2022-10-19T20:34:11.667Z,11.40
2022-10-19T20:36:44.001Z,11.40
2022-10-19T20:39:10.782Z,11.40
2022-10-19T20:41:39.934Z,11.40
2022-10-19T20:44:06.666Z,11.40
2022-10-19T20:46:33.543Z,11.30
2022-10-19T20:49:07.319Z,11.30
2022-10-19T20:51:38.976Z,11.30
2022-10-19T20:54:08.646Z,11.30
2022-10-19T20:56:37.309Z,11.30
2022-10-19T20:59:10.989Z,11.30
2022-10-19T21:01:39.718Z,11.30
2022-10-19T21:04:09.309Z,11.20
2022-10-19T21:06:43.505Z,11.20
2022-10-19T21:09:13.602Z,11.20
2022-10-19T21:11:47.232Z,11.20
2022-10-19T21:14:16.835Z,11.20
2022-10-19T21:16:43.712Z,11.20
2022-10-19T21:19:23.742Z,11.10
2022-10-19T21:21:56.271Z,11.20
2022-10-19T21:24:32.724Z,11.10
2022-10-19T21:27:06.544Z,11.20
2022-10-19T21:29:36.040Z,11.10
2022-10-19T21:32:02.901Z,11.00
2022-10-19T21:34:32.465Z,11.00
2022-10-19T21:36:59.588Z,10.90
2022-10-19T21:39:26.390Z,10.90
2022-10-19T21:41:53.251Z,10.80
2022-10-19T21:44:23.176Z,10.70
2022-10-19T21:46:52.942Z,10.80
2022-10-19T21:49:22.113Z,10.80
2022-10-19T21:51:56.370Z,10.70
2022-10-19T21:54:25.341Z,10.60
2022-10-19T21:56:53.063Z,10.60
2022-10-19T21:59:21.940Z,10.60
2022-10-19T22:01:50.880Z,10.60
2022-10-19T22:04:21.007Z,10.60
2022-10-19T22:06:52.405Z,10.50
2022-10-19T22:09:20.990Z,10.60
2022-10-19T22:11:50.079Z,10.60
2022-10-19T22:14:17.135Z,10.50
2022-10-19T22:16:44.191Z,10.50
2022-10-19T22:19:11.573Z,10.50
2022-10-19T22:21:43.720Z,10.50
2022-10-19T22:24:12.422Z,10.50
2022-10-19T22:26:44.503Z,10.50
2022-10-19T22:29:13.751Z,10.50
2022-10-19T22:31:45.443Z,10.50
2022-10-19T22:34:15.476Z,10.50
2022-10-19T22:36:42.662Z,10.50
2022-10-19T22:39:11.809Z,10.50
2022-10-19T22:41:38.528Z,10.40
2022-10-19T22:44:07.783Z,10.50
2022-10-19T22:46:39.276Z,10.50
2022-10-19T22:49:06.088Z,10.40
2022-10-19T22:51:35.456Z,10.30
2022-10-19T22:54:02.157Z,10.30
2022-10-19T22:56:28.917Z,10.30
2022-10-19T22:59:00.028Z,10.30
2022-10-19T23:01:31.901Z,10.20
2022-10-19T23:04:01.483Z,10.20
2022-10-19T23:06:35.462Z,10.20
2022-10-19T23:09:02.295Z,10.20
2022-10-19T23:11:31.151Z,10.10
2022-10-19T23:13:57.951Z,10.10
2022-10-19T23:16:24.740Z,10.00
2022-10-19T23:18:56.375Z,10.00
2022-10-19T23:21:23.074Z,10.00
2022-10-19T23:23:49.739Z,10.00
2022-10-19T23:26:21.325Z,9.90
2022-10-19T23:28:49.831Z,9.90
2022-10-19T23:31:23.572Z,9.80
2022-10-19T23:33:53.872Z,9.80
2022-10-19T23:36:23.334Z,9.80
2022-10-19T23:38:51.472Z,9.80
2022-10-19T23:41:18.671Z,9.80
2022-10-19T23:43:50.039Z,9.80
2022-10-19T23:46:16.949Z,9.80
2022-10-19T23:48:45.854Z,9.80
2022-10-19T23:51:17.594Z,9.70
2022-10-19T23:53:48.513Z,9.70
2022-10-19T23:56:19.531Z,9.70
2022-10-19T23:58:47.110Z,9.70
